^^
Datos históricos de la estación: Murcia-Puente Tocinos
Diario Informe para Agosto 9, 2019 Unidades:  Métrico    Ingés   Ambas
Diario Semanal Mensual Anual
  Máxima: Mínima: Promedio:
Temperatura: 29.3 °C 19.3 °C 23.9 °C
Punto de rocio: 15.5 °C 11.1 °C 13 °C
Humedad: 67% 33.6% 52%
Velocidad viento: 19.8km/h 0km/h 8.3km/h
Racha viento: 32.2km/h - -
Viento- - SSO
Presión: 1017.1 hPa 1010.8 hPa -
Precipitación: 0.0 mm    
 
 
Tabla de datos para Agosto 9, 2019
Hora Temperatura Punto de rocio Presión Viento Velocidad viento Racha viento Humedad Intensidad lluvia(por hora) Nubes
00:04 21.7 °C 12.6 °C 1016.9 hPa ESE 5 km/h 11.3 km/h 56% 0.0 mm
00:09 21.7 °C 12.7 °C 1016.8 hPa ESE 4.4 km/h 9.3 km/h 56.5% 0.0 mm
00:14 21.7 °C 12.8 °C 1016.8 hPa ENE 3.2 km/h 10 km/h 57% 0.0 mm
00:19 21.7 °C 12.8 °C 1016.8 hPa NNO 3.8 km/h 9.7 km/h 57% 0.0 mm
00:24 21.7 °C 12.8 °C 1016.8 hPa NNO 4.7 km/h 8 km/h 57% 0.0 mm
00:29 21.6 °C 12.7 °C 1016.8 hPa NNO 4.3 km/h 8 km/h 57% 0.0 mm
00:34 21.6 °C 12.9 °C 1016.9 hPa NNO 3.9 km/h 9.5 km/h 57.7% 0.0 mm
00:39 21.5 °C 12.9 °C 1016.9 hPa NNO 4.3 km/h 9.7 km/h 58.3% 0.0 mm
00:44 21.4 °C 13.1 °C 1016.9 hPa NNO 5 km/h 9.5 km/h 59% 0.0 mm
00:49 21.4 °C 13.1 °C 1017.0 hPa North 5 km/h 9.7 km/h 59.4% 0.0 mm
00:54 21.3 °C 13.2 °C 1017.0 hPa NNE 5 km/h 9.3 km/h 60% 0.0 mm
00:59 21.2 °C 13.3 °C 1017.0 hPa NNE 5 km/h 11.1 km/h 60.7% 0.0 mm
01:04 21.2 °C 13.4 °C 1017.0 hPa NE 5 km/h 11.3 km/h 61% 0.0 mm
01:09 21.1 °C 13.5 °C 1017.0 hPa NE 5 km/h 8 km/h 61.8% 0.0 mm
01:14 21.1 °C 13.6 °C 1017.0 hPa NNE 5 km/h 8 km/h 62% 0.0 mm
01:19 21.1 °C 13.6 °C 1017.1 hPa NNE 3.8 km/h 3.9 km/h 62% 0.0 mm
01:24 21.1 °C 13.5 °C 1017.1 hPa NO 2.2 km/h 5.8 km/h 62% 0.0 mm
01:29 21 °C 13.5 °C 1017.1 hPa NO 2.5 km/h 6.4 km/h 62% 0.0 mm
01:34 21 °C 13.4 °C 1017.1 hPa NO 2.9 km/h 4.8 km/h 62% 0.0 mm
01:39 20.9 °C 13.4 °C 1016.9 hPa ONO 2.7 km/h 5.8 km/h 62% 0.0 mm
01:44 21 °C 13.4 °C 1016.9 hPa Oeste 2.2 km/h 6.4 km/h 62% 0.0 mm
01:49 21 °C 13.4 °C 1016.9 hPa Oeste 2.2 km/h 5.6 km/h 62% 0.0 mm
01:54 21 °C 13.4 °C 1016.8 hPa OSO 2.2 km/h 10 km/h 62% 0.0 mm
01:59 21 °C 13.5 °C 1016.8 hPa SO 2.7 km/h 9.7 km/h 62% 0.0 mm
02:04 21.1 °C 13.5 °C 1016.8 hPa OSO 3.2 km/h 11.1 km/h 62% 0.0 mm
02:09 21 °C 13.5 °C 1016.8 hPa SO 4.3 km/h 11.3 km/h 62% 0.0 mm
02:14 21 °C 13.4 °C 1016.8 hPa SO 5.8 km/h 16.7 km/h 62% 0.0 mm
02:19 21 °C 13.6 °C 1016.8 hPa SO 6.8 km/h 16.1 km/h 63% 0.0 mm
02:24 20.9 °C 13.7 °C 1016.6 hPa SO 8.4 km/h 16.7 km/h 63.3% 0.0 mm
02:29 20.8 °C 13.8 °C 1016.6 hPa SSO 9 km/h 16.1 km/h 64.1% 0.0 mm
02:34 20.7 °C 13.9 °C 1016.6 hPa SSO 10 km/h 16.7 km/h 65% 0.0 mm
02:39 20.7 °C 14 °C 1016.2 hPa SSO 10 km/h 17.2 km/h 65.8% 0.0 mm
02:44 20.5 °C 14 °C 1016.2 hPa SSO 10 km/h 17.7 km/h 66% 0.0 mm
02:49 20.4 °C 13.9 °C 1016.2 hPa SO 9.5 km/h 14.8 km/h 66.1% 0.0 mm
02:54 20.4 °C 14.1 °C 1016.0 hPa SO 8.7 km/h 14.5 km/h 67% 0.0 mm
02:59 20.4 °C 14.1 °C 1016.0 hPa SSO 7.5 km/h 11.3 km/h 67% 0.0 mm
03:04 20.4 °C 13.9 °C 1016.0 hPa SSO 5.8 km/h 12.2 km/h 66.2% 0.0 mm
03:09 20.4 °C 13.8 °C 1015.7 hPa SO 6.2 km/h 13 km/h 66% 0.0 mm
03:14 20.4 °C 13.8 °C 1015.7 hPa OSO 6.9 km/h 10 km/h 66% 0.0 mm
03:19 20.4 °C 13.8 °C 1015.7 hPa SO 6.5 km/h 16.1 km/h 66% 0.0 mm
03:24 20.4 °C 13.8 °C 1015.6 hPa SO 5.8 km/h 16.7 km/h 66% 0.0 mm
03:29 20.4 °C 13.8 °C 1015.6 hPa SO 7.2 km/h 14.5 km/h 66% 0.0 mm
03:34 20.4 °C 13.8 °C 1015.6 hPa SO 9.5 km/h 16.4 km/h 65.8% 0.0 mm
03:39 20.4 °C 13.6 °C 1015.6 hPa OSO 9.2 km/h 16.7 km/h 65% 0.0 mm
03:44 20.4 °C 13.6 °C 1015.6 hPa SO 8.7 km/h 18.5 km/h 65% 0.0 mm
03:49 20.4 °C 13.6 °C 1015.6 hPa SSO 9 km/h 19.3 km/h 65% 0.0 mm
03:54 20.3 °C 13.5 °C 1015.4 hPa SSO 9.5 km/h 16.1 km/h 65% 0.0 mm
03:59 20.3 °C 13.5 °C 1015.4 hPa SO 9 km/h 14.5 km/h 65% 0.0 mm
04:04 20.3 °C 13.5 °C 1015.5 hPa SO 8.4 km/h 11.3 km/h 65% 0.0 mm
04:09 20.3 °C 13.5 °C 1015.5 hPa OSO 7 km/h 9.7 km/h 65% 0.0 mm
04:14 20.3 °C 13.5 °C 1015.5 hPa SO 5 km/h 13.7 km/h 65% 0.0 mm
04:19 20.3 °C 13.5 °C 1015.5 hPa OSO 5.6 km/h 14.5 km/h 65% 0.0 mm
04:24 20.3 °C 13.4 °C 1015.1 hPa OSO 6.5 km/h 11.3 km/h 64.4% 0.0 mm
04:29 20.3 °C 13.3 °C 1015.1 hPa SO 5.9 km/h 11.9 km/h 64% 0.0 mm
04:34 20.3 °C 13.1 °C 1015.1 hPa SO 5 km/h 14.8 km/h 63.4% 0.0 mm
04:39 20.3 °C 12.9 °C 1015.0 hPa SO 6 km/h 14.5 km/h 62.8% 0.0 mm
04:44 20.3 °C 12.8 °C 1015.0 hPa OSO 7.6 km/h 12.9 km/h 62% 0.0 mm
04:49 20.4 °C 12.9 °C 1015.0 hPa SO 7.3 km/h 15.6 km/h 62% 0.0 mm
04:54 20.4 °C 12.7 °C 1014.9 hPa OSO 6.9 km/h 17.2 km/h 61.3% 0.0 mm
04:59 20.4 °C 12.6 °C 1014.9 hPa OSO 7.7 km/h 17.7 km/h 61% 0.0 mm
05:04 20.4 °C 12.6 °C 1014.9 hPa SO 8.7 km/h 11.3 km/h 61% 0.0 mm
05:09 20.3 °C 12.8 °C 1014.9 hPa SSO 7.5 km/h 11.3 km/h 62% 0.0 mm
05:14 20.3 °C 12.8 °C 1014.9 hPa SSE 5.8 km/h 11.3 km/h 62.1% 0.0 mm
05:19 20.2 °C 12.9 °C 1014.9 hPa SSE 6.2 km/h 11.3 km/h 63% 0.0 mm
05:24 20.2 °C 12.9 °C 1014.2 hPa Sur 6.9 km/h 9.7 km/h 63% 0.0 mm
05:29 20.1 °C 12.8 °C 1014.2 hPa Sur 6.5 km/h 9.7 km/h 63.1% 0.0 mm
05:34 19.9 °C 12.9 °C 1014.5 hPa SSO 5.8 km/h 11.9 km/h 64% 0.0 mm
05:39 19.8 °C 12.9 °C 1014.5 hPa SO 6.2 km/h 11.9 km/h 64.5% 0.0 mm
05:44 19.8 °C 13 °C 1014.5 hPa SO 6.9 km/h 11.3 km/h 64.8% 0.0 mm
05:49 19.8 °C 12.8 °C 1014.5 hPa OSO 6.7 km/h 11.1 km/h 64% 0.0 mm
05:54 19.9 °C 12.7 °C 1014.5 hPa OSO 6.5 km/h 11.3 km/h 63.1% 0.0 mm
05:59 20 °C 12.6 °C 1014.5 hPa Oeste 6.2 km/h 11.3 km/h 62.3% 0.0 mm
06:04 20.1 °C 12.6 °C 1014.6 hPa OSO 5.8 km/h 9.7 km/h 62% 0.0 mm
06:09 20.1 °C 12.6 °C 1014.6 hPa OSO 5.5 km/h 9.7 km/h 62% 0.0 mm
06:14 20.1 °C 12.4 °C 1014.6 hPa SO 5 km/h 11.9 km/h 61.2% 0.0 mm
06:19 20.1 °C 12.4 °C 1014.8 hPa SSO 5.6 km/h 13 km/h 61.1% 0.0 mm
06:24 20 °C 12.5 °C 1014.8 hPa Sur 6.5 km/h 12.9 km/h 62.2% 0.0 mm
06:29 19.9 °C 12.4 °C 1014.8 hPa SSO 6.7 km/h 11.3 km/h 62.3% 0.0 mm
06:34 19.8 °C 12.4 °C 1014.8 hPa Sur 6.9 km/h 11.3 km/h 62.2% 0.0 mm
06:39 19.8 °C 12.3 °C 1014.7 hPa Sur 6.5 km/h 11.9 km/h 62% 0.0 mm
06:44 19.8 °C 12.5 °C 1014.7 hPa SSE 5.8 km/h 11.9 km/h 62.8% 0.0 mm
06:49 19.6 °C 12.7 °C 1014.8 hPa Sur 6.5 km/h 11.3 km/h 64.3% 0.0 mm
06:54 19.4 °C 12.7 °C 1014.8 hPa Sur 7.6 km/h 11.3 km/h 65% 0.0 mm
06:59 19.3 °C 12.6 °C 1014.8 hPa Sur 7.1 km/h 11.3 km/h 65% 0.0 mm
07:04 19.3 °C 12.6 °C 1014.8 hPa SSO 6.5 km/h 8 km/h 65% 0.0 mm
07:09 19.3 °C 12.5 °C 1014.8 hPa SSO 5.8 km/h 9.5 km/h 64.7% 0.0 mm
07:14 19.4 °C 12.7 °C 1014.8 hPa SSE 4.7 km/h 10 km/h 65% 0.0 mm
07:19 19.5 °C 12.7 °C 1014.8 hPa SSE 5.3 km/h 9.7 km/h 65% 0.0 mm
07:24 19.5 °C 12.7 °C 1014.8 hPa SE 6.5 km/h 9.7 km/h 64.8% 0.0 mm
07:29 19.6 °C 12.6 °C 1014.8 hPa SE 5.5 km/h 11.9 km/h 64.2% 0.0 mm
07:34 19.6 °C 12.8 °C 1014.8 hPa SE 3.9 km/h 11.3 km/h 65% 0.0 mm
07:39 19.4 °C 12.7 °C 1014.6 hPa SE 5 km/h 11.3 km/h 65% 0.0 mm
07:44 19.4 °C 12.7 °C 1014.6 hPa SE 6.9 km/h 11.3 km/h 65% 0.0 mm
07:49 19.4 °C 12.7 °C 1014.6 hPa SE 6.2 km/h 9.7 km/h 65% 0.0 mm
07:54 19.4 °C 12.7 °C 1014.6 hPa Sur 5 km/h 9.7 km/h 65% 0.0 mm
07:59 19.4 °C 12.7 °C 1014.6 hPa SSO 4.9 km/h 8 km/h 65% 0.0 mm
08:04 19.4 °C 12.7 °C 1014.7 hPa SSO 4.7 km/h 8 km/h 65% 0.0 mm
08:09 19.6 °C 12.8 °C 1014.7 hPa SSE 4 km/h 8.7 km/h 65% 0.0 mm
08:14 19.7 °C 12.7 °C 1014.7 hPa SE 2.9 km/h 13 km/h 64.1% 0.0 mm
08:19 19.7 °C 12.7 °C 1014.9 hPa SSE 4.5 km/h 12.9 km/h 64.1% 0.0 mm
08:24 19.7 °C 12.8 °C 1014.9 hPa Sur 6.9 km/h 13.7 km/h 64.5% 0.0 mm
08:29 19.7 °C 12.7 °C 1014.9 hPa Sur 7.5 km/h 14.5 km/h 64% 0.0 mm
08:34 19.7 °C 12.7 °C 1014.9 hPa Sur 8.4 km/h 12.9 km/h 64% 0.0 mm
08:39 19.8 °C 12.5 °C 1014.8 hPa SO 7.8 km/h 11.1 km/h 62.8% 0.0 mm
08:44 20.1 °C 12.3 °C 1014.8 hPa OSO 6.9 km/h 16.7 km/h 60.7% 0.0 mm
08:49 20.4 °C 12.2 °C 1015.0 hPa SO 7.5 km/h 16.1 km/h 59.1% 0.0 mm
08:54 20.7 °C 12.1 °C 1015.0 hPa SO 8.4 km/h 18.5 km/h 58.1% 0.0 mm
08:59 20.8 °C 12.2 °C 1015.0 hPa SSO 8.5 km/h 19.3 km/h 58% 0.0 mm
09:04 20.8 °C 12.1 °C 1015.0 hPa SO 8.7 km/h 16.7 km/h 57.6% 0.0 mm
09:09 20.8 °C 12.2 °C 1014.9 hPa Sur 9.2 km/h 16.1 km/h 58% 0.0 mm
09:14 20.8 °C 12.3 °C 1014.9 hPa SSO 10 km/h 16.7 km/h 58% 0.0 mm
09:19 20.9 °C 12.3 °C 1015.0 hPa SO 10.1 km/h 16.1 km/h 57.8% 0.0 mm
09:24 21.2 °C 12.2 °C 1015.0 hPa SO 10.3 km/h 19 km/h 56.8% 0.0 mm
09:29 21.3 °C 12.2 °C 1015.0 hPa SO 10.3 km/h 19.3 km/h 56.3% 0.0 mm
09:34 21.4 °C 12.2 °C 1015.0 hPa SO 10.3 km/h 19.3 km/h 55.8% 0.0 mm
09:39 21.6 °C 12.1 °C 1014.9 hPa SO 10.2 km/h 19.3 km/h 55% 0.0 mm
09:44 21.7 °C 12.2 °C 1014.9 hPa SO 10 km/h 19.3 km/h 54.8% 0.0 mm
09:49 21.8 °C 12.1 °C 1014.9 hPa SSO 9.5 km/h 16.1 km/h 54.4% 0.0 mm
09:54 21.9 °C 12.1 °C 1014.9 hPa SSO 8.7 km/h 16.1 km/h 54% 0.0 mm
09:59 22.2 °C 12 °C 1014.9 hPa SSO 8.2 km/h 14.8 km/h 52.7% 0.0 mm
10:04 22.4 °C 11.9 °C 1014.9 hPa SSO 7.6 km/h 14.5 km/h 51.4% 0.0 mm
10:09 22.4 °C 11.8 °C 1014.7 hPa OSO 8 km/h 18.5 km/h 51% 0.0 mm
10:14 22.4 °C 11.8 °C 1014.7 hPa SSO 8.7 km/h 19.3 km/h 51% 0.0 mm
10:19 22.7 °C 12 °C 1014.7 hPa SSO 8.7 km/h 15.6 km/h 50.7% 0.0 mm
10:24 23.1 °C 11.9 °C 1014.7 hPa SSO 8.7 km/h 17.2 km/h 49.3% 0.0 mm
10:29 23.2 °C 11.8 °C 1014.7 hPa SO 9.3 km/h 17.7 km/h 48.8% 0.0 mm
10:34 23.3 °C 11.9 °C 1014.7 hPa SO 10.3 km/h 16.1 km/h 48.4% 0.0 mm
10:39 23.5 °C 11.7 °C 1014.7 hPa OSO 9.3 km/h 14.8 km/h 47.3% 0.0 mm
10:44 23.7 °C 11.8 °C 1014.7 hPa SO 7.6 km/h 16.7 km/h 47.3% 0.0 mm
10:49 23.9 °C 11.9 °C 1014.7 hPa SO 8.4 km/h 16.1 km/h 47% 0.0 mm
10:54 24.2 °C 12.1 °C 1014.6 hPa Sur 9.5 km/h 14.8 km/h 46.6% 0.0 mm
10:59 24.6 °C 11.9 °C 1014.6 hPa SSO 8.7 km/h 14.8 km/h 45.2% 0.0 mm
11:04 24.8 °C 11.7 °C 1014.6 hPa SO 7.6 km/h 14.5 km/h 43.7% 0.0 mm
11:09 24.8 °C 11.5 °C 1014.6 hPa SO 8 km/h 19 km/h 43.1% 0.0 mm
11:14 24.9 °C 11.4 °C 1014.6 hPa OSO 8.7 km/h 19.3 km/h 42.7% 0.0 mm
11:19 25.3 °C 11.3 °C 1014.7 hPa OSO 8.7 km/h 20.4 km/h 41.6% 0.0 mm
11:24 25.5 °C 11.3 °C 1014.7 hPa SO 8.7 km/h 20.9 km/h 41% 0.0 mm
11:29 25.4 °C 11.2 °C 1014.7 hPa SO 9.4 km/h 22.2 km/h 41% 0.0 mm
11:34 25.3 °C 11.1 °C 1014.7 hPa SO 10.3 km/h 22.5 km/h 41% 0.0 mm
11:39 25.2 °C 11.4 °C 1014.6 hPa Oeste 10.2 km/h 20.9 km/h 42% 0.0 mm
11:44 25.3 °C 11.5 °C 1014.6 hPa Oeste 10 km/h 16.1 km/h 42.2% 0.0 mm
11:49 25.3 °C 11.5 °C 1014.6 hPa SO 9.8 km/h 14.8 km/h 42.3% 0.0 mm
11:54 25.3 °C 11.9 °C 1014.4 hPa Oeste 9.5 km/h 14.5 km/h 43.3% 0.0 mm
11:59 25.3 °C 11.9 °C 1014.4 hPa ONO 7.5 km/h 14.8 km/h 43% 0.0 mm
12:04 25.3 °C 11.8 °C 1014.4 hPa ONO 5 km/h 14.5 km/h 43% 0.0 mm
12:09 25.2 °C 11.9 °C 1014.3 hPa Oeste 6.4 km/h 14.5 km/h 43.4% 0.0 mm
12:14 25.2 °C 12.1 °C 1014.3 hPa Oeste 8.7 km/h 12.9 km/h 44% 0.0 mm
12:19 25.2 °C 12.1 °C 1014.3 hPa Oeste 8 km/h 13 km/h 44% 0.0 mm
12:24 25.2 °C 12.1 °C 1014.3 hPa OSO 6.9 km/h 12.9 km/h 44% 0.0 mm
12:29 25.3 °C 12 °C 1014.3 hPa ONO 6.5 km/h 13 km/h 43.6% 0.0 mm
12:34 25.3 °C 12 °C 1014.3 hPa ONO 5.8 km/h 14.8 km/h 43.3% 0.0 mm
12:39 25.3 °C 12.1 °C 1014.0 hPa ONO 6.8 km/h 14.5 km/h 43.7% 0.0 mm
12:44 25.3 °C 11.9 °C 1014.0 hPa Oeste 8.4 km/h 12.9 km/h 43.2% 0.0 mm
12:49 25.3 °C 11.8 °C 1014.0 hPa ONO 7.8 km/h 11.3 km/h 43% 0.0 mm
12:54 25.3 °C 11.9 °C 1014.0 hPa Oeste 6.9 km/h 11.3 km/h 43.1% 0.0 mm
12:59 25.4 °C 12.2 °C 1014.0 hPa ONO 6.9 km/h 11.3 km/h 43.8% 0.0 mm
13:04 25.5 °C 12.3 °C 1014.0 hPa NNO 6.9 km/h 9.7 km/h 44% 0.0 mm
13:09 25.6 °C 12.2 °C 1013.8 hPa Oeste 6.2 km/h 13.7 km/h 43.2% 0.0 mm
13:14 25.7 °C 12.3 °C 1013.8 hPa Oeste 4.7 km/h 14.5 km/h 43.3% 0.0 mm
13:19 25.6 °C 12.1 °C 1013.8 hPa Oeste 5.4 km/h 13 km/h 43% 0.0 mm
13:24 25.5 °C 12 °C 1013.7 hPa Oeste 6.5 km/h 13 km/h 43% 0.0 mm
13:29 25.6 °C 12.1 °C 1013.7 hPa ONO 6.7 km/h 14.8 km/h 43% 0.0 mm
13:34 25.6 °C 12 °C 1013.7 hPa Oeste 6.9 km/h 15.6 km/h 42.7% 0.0 mm
13:39 25.7 °C 11.8 °C 1013.5 hPa Oeste 7.5 km/h 16.1 km/h 42% 0.0 mm
13:44 25.7 °C 11.8 °C 1013.5 hPa Oeste 8.4 km/h 14.5 km/h 42% 0.0 mm
13:49 25.7 °C 11.9 °C 1013.5 hPa OSO 7.6 km/h 14 km/h 42% 0.0 mm
13:54 25.9 °C 12 °C 1013.5 hPa SSO 6.5 km/h 14.8 km/h 41.9% 0.0 mm
13:59 26.2 °C 12 °C 1013.5 hPa SSO 6.7 km/h 13 km/h 41.2% 0.0 mm
14:04 26.3 °C 11.7 °C 1013.5 hPa SSO 6.9 km/h 12.9 km/h 40.1% 0.0 mm
14:09 26.3 °C 11.9 °C 1013.4 hPa Sur 6.5 km/h 11.3 km/h 40.8% 0.0 mm
14:14 26.5 °C 12 °C 1013.4 hPa SSE 5.8 km/h 11.9 km/h 40.4% 0.0 mm
14:19 26.6 °C 11.9 °C 1013.4 hPa SSE 5.8 km/h 11.3 km/h 40% 0.0 mm
14:24 26.8 °C 12.1 °C 1013.2 hPa SO 5.8 km/h 11.3 km/h 39.9% 0.0 mm
14:29 27.2 °C 12.1 °C 1013.2 hPa SSE 5.8 km/h 11.3 km/h 39.1% 0.0 mm
14:34 27.4 °C 12.1 °C 1013.2 hPa NNO 5.8 km/h 11.3 km/h 38.5% 0.0 mm
14:39 27.7 °C 12.2 °C 1012.9 hPa ENE 5.5 km/h 15.6 km/h 38.2% 0.0 mm
14:44 27.6 °C 12 °C 1012.9 hPa ESE 5 km/h 16.1 km/h 38% 0.0 mm
14:49 27.6 °C 12.1 °C 1012.9 hPa Este 4.9 km/h 11.3 km/h 38.2% 0.0 mm
14:54 27.7 °C 12.1 °C 1012.6 hPa OSO 4.7 km/h 9.7 km/h 38% 0.0 mm
14:59 27.8 °C 12.1 °C 1012.6 hPa ONO 4.8 km/h 9.7 km/h 38% 0.0 mm
15:04 27.9 °C 11.9 °C 1012.6 hPa OSO 5 km/h 11.1 km/h 37.2% 0.0 mm
15:09 27.9 °C 11.8 °C 1012.4 hPa SO 5.3 km/h 11.9 km/h 36.8% 0.0 mm
15:14 28.1 °C 11.9 °C 1012.4 hPa North 5.8 km/h 11.3 km/h 36.8% 0.0 mm
15:19 28.2 °C 11.7 °C 1012.4 hPa NNE 5.3 km/h 9.7 km/h 36% 0.0 mm
15:24 28.4 °C 11.6 °C 1012.1 hPa ENE 4.7 km/h 13 km/h 35.3% 0.0 mm
15:29 28.5 °C 11.3 °C 1012.1 hPa Sur 4.8 km/h 13 km/h 34.3% 0.0 mm
15:34 28.7 °C 11.4 °C 1012.1 hPa Sur 5 km/h 15.6 km/h 34.4% 0.0 mm
15:39 28.7 °C 11.3 °C 1012.0 hPa SSE 5.8 km/h 16.1 km/h 34% 0.0 mm
15:44 28.7 °C 11.3 °C 1012.0 hPa OSO 6.9 km/h 13 km/h 34% 0.0 mm
15:49 28.6 °C 11.2 °C 1012.0 hPa SSE 6.9 km/h 13 km/h 33.9% 0.0 mm
15:54 28.7 °C 11.2 °C 1011.9 hPa SSO 6.9 km/h 12.9 km/h 34% 0.0 mm
15:59 28.7 °C 11.3 °C 1011.9 hPa SSO 6.1 km/h 12.2 km/h 34% 0.0 mm
16:04 29 °C 11.3 °C 1011.9 hPa SE 5 km/h 13 km/h 33.6% 0.0 mm
16:09 29.2 °C 12.1 °C 1011.8 hPa Este 5.6 km/h 25.1 km/h 34.7% 0.0 mm
16:14 29.3 °C 13.5 °C 1011.8 hPa ESE 6.5 km/h 27.4 km/h 38.1% 0.0 mm
16:19 29.1 °C 13.4 °C 1011.8 hPa ESE 10.2 km/h 27.4 km/h 38.2% 0.0 mm
16:24 29 °C 13.5 °C 1011.6 hPa ESE 15.6 km/h 24.1 km/h 38.8% 0.0 mm
16:29 28.6 °C 13.5 °C 1011.6 hPa Este 15.8 km/h 24.1 km/h 39.5% 0.0 mm
16:34 28.5 °C 13.6 °C 1011.6 hPa Este 16.1 km/h 24.1 km/h 40% 0.0 mm
16:39 28.6 °C 13.5 °C 1011.4 hPa ESE 15.3 km/h 24.1 km/h 39.4% 0.0 mm
16:44 28.6 °C 13.6 °C 1011.4 hPa ESE 14 km/h 24.1 km/h 39.8% 0.0 mm
16:49 28.6 °C 13.4 °C 1011.4 hPa ESE 13.6 km/h 22.5 km/h 39.2% 0.0 mm
16:54 28.7 °C 13.7 °C 1011.3 hPa SE 13 km/h 23.3 km/h 39.9% 0.0 mm
16:59 28.7 °C 14 °C 1011.3 hPa ESE 13.3 km/h 24.5 km/h 40.5% 0.0 mm
17:04 28.7 °C 14 °C 1011.3 hPa SE 13.7 km/h 27.8 km/h 40.7% 0.0 mm
17:09 28.6 °C 13.9 °C 1011.2 hPa SE 15.4 km/h 29.6 km/h 40.6% 0.0 mm
17:14 28.5 °C 13.8 °C 1011.2 hPa SE 18 km/h 29 km/h 40.6% 0.0 mm
17:19 28.6 °C 13.9 °C 1011.2 hPa SE 18.2 km/h 29.6 km/h 40.7% 0.0 mm
17:24 28.6 °C 13.7 °C 1011.0 hPa SE 18.4 km/h 29 km/h 40.2% 0.0 mm
17:29 28.7 °C 13.7 °C 1011.0 hPa SE 17.5 km/h 25.9 km/h 40% 0.0 mm
17:34 28.6 °C 14 °C 1011.0 hPa ESE 16.1 km/h 25.7 km/h 40.9% 0.0 mm
17:39 28.7 °C 14.1 °C 1011.0 hPa SE 15.9 km/h 26.2 km/h 41% 0.0 mm
17:44 28.6 °C 14.1 °C 1011.0 hPa SE 15.6 km/h 27.8 km/h 41% 0.0 mm
17:49 28.3 °C 14.1 °C 1011.0 hPa SE 16.2 km/h 28.6 km/h 41.7% 0.0 mm
17:54 28 °C 14 °C 1011.0 hPa SE 17.2 km/h 31.7 km/h 42.2% 0.0 mm
17:59 27.8 °C 13.9 °C 1011.0 hPa SE 18.2 km/h 32.2 km/h 42.6% 0.0 mm
18:04 27.8 °C 14 °C 1011.0 hPa SE 19.8 km/h 27.4 km/h 42.9% 0.0 mm
18:09 27.9 °C 14.1 °C 1011.0 hPa SSE 18.2 km/h 25.9 km/h 42.8% 0.0 mm
18:14 27.8 °C 14.1 °C 1011.0 hPa SE 15.6 km/h 25.9 km/h 43% 0.0 mm
18:19 27.7 °C 14.1 °C 1011.0 hPa SSE 15.6 km/h 29.6 km/h 43.4% 0.0 mm
18:24 27.6 °C 14.2 °C 1011.0 hPa SSE 15.6 km/h 29 km/h 44% 0.0 mm
18:29 27.5 °C 14.3 °C 1011.0 hPa SE 15.9 km/h 28.2 km/h 44.4% 0.0 mm
18:34 27.4 °C 14.4 °C 1011.0 hPa SE 16.4 km/h 27.8 km/h 44.9% 0.0 mm
18:39 27.6 °C 14.6 °C 1011.0 hPa SSE 16.1 km/h 27.4 km/h 45% 0.0 mm
18:44 27.6 °C 14.6 °C 1011.0 hPa SSE 15.6 km/h 27.8 km/h 45% 0.0 mm
18:49 27.6 °C 14.3 °C 1011.0 hPa SSE 16.6 km/h 31.7 km/h 44.4% 0.0 mm
18:54 27.5 °C 14.5 °C 1010.8 hPa SE 18 km/h 32.2 km/h 45% 0.0 mm
18:59 27.7 °C 14.6 °C 1010.8 hPa SE 16.6 km/h 25.9 km/h 45% 0.0 mm
19:04 27.7 °C 14.4 °C 1010.9 hPa SE 14.8 km/h 24.5 km/h 44.4% 0.0 mm
19:09 27.7 °C 14.3 °C 1010.9 hPa SE 14.8 km/h 24.1 km/h 43.8% 0.0 mm
19:14 27.7 °C 14 °C 1010.9 hPa SE 14.8 km/h 24.1 km/h 43% 0.0 mm
19:19 27.7 °C 14.1 °C 1010.9 hPa SE 13.7 km/h 22.5 km/h 43.3% 0.0 mm
19:24 27.7 °C 14 °C 1010.8 hPa SE 11.9 km/h 31.7 km/h 43% 0.0 mm
19:29 27.5 °C 13.8 °C 1010.8 hPa SE 13 km/h 32.2 km/h 43% 0.0 mm
19:34 27.4 °C 13.7 °C 1010.8 hPa SE 14.8 km/h 27.4 km/h 43% 0.0 mm
19:39 27.3 °C 13.7 °C 1010.8 hPa SE 15.3 km/h 27.4 km/h 43% 0.0 mm
19:44 27.3 °C 13.9 °C 1010.8 hPa SE 16.1 km/h 29.6 km/h 43.7% 0.0 mm
19:49 27.3 °C 14.1 °C 1011.0 hPa SE 15.9 km/h 29 km/h 44.3% 0.0 mm
19:54 27.3 °C 14.5 °C 1011.0 hPa Sur 15.6 km/h 24.1 km/h 45.4% 0.0 mm
19:59 27.2 °C 14.6 °C 1011.0 hPa SSE 14.8 km/h 20.9 km/h 46% 0.0 mm
20:04 27.3 °C 14.6 °C 1011.1 hPa SSE 13.7 km/h 24.5 km/h 46% 0.0 mm
20:09 27 °C 14.7 °C 1011.1 hPa SSE 13.1 km/h 25.6 km/h 46.9% 0.0 mm
20:14 26.8 °C 14.9 °C 1011.1 hPa SSE 12.2 km/h 25.9 km/h 48% 0.0 mm
20:19 26.7 °C 14.9 °C 1011.3 hPa SSE 12.8 km/h 24.1 km/h 48.4% 0.0 mm
20:24 26.6 °C 14.7 °C 1011.3 hPa SSE 13.7 km/h 19.3 km/h 48.1% 0.0 mm
20:29 26.6 °C 14.7 °C 1011.3 hPa Sur 12.6 km/h 19 km/h 48.1% 0.0 mm
20:34 26.4 °C 14.4 °C 1011.3 hPa Sur 11.1 km/h 19.3 km/h 47.6% 0.0 mm
20:39 26.4 °C 14.2 °C 1011.3 hPa Sur 10.8 km/h 19.3 km/h 47% 0.0 mm
20:44 26.3 °C 14.1 °C 1011.3 hPa Sur 10.3 km/h 17.2 km/h 47% 0.0 mm
20:49 26.3 °C 14.1 °C 1011.3 hPa SSO 10.6 km/h 18.5 km/h 47.1% 0.0 mm
20:54 26.2 °C 14.3 °C 1011.2 hPa Sur 11.1 km/h 19.3 km/h 48% 0.0 mm
20:59 26.1 °C 14.4 °C 1011.2 hPa SSO 11.1 km/h 19.3 km/h 48.6% 0.0 mm
21:04 25.9 °C 14.1 °C 1011.2 hPa SSO 11.1 km/h 20.4 km/h 48.3% 0.0 mm
21:09 25.8 °C 13.6 °C 1011.2 hPa Sur 11.9 km/h 20.9 km/h 47% 0.0 mm
21:14 25.8 °C 13.5 °C 1011.2 hPa Sur 13 km/h 19.3 km/h 46.9% 0.0 mm
21:19 25.7 °C 13.2 °C 1011.3 hPa SSO 11.9 km/h 18.5 km/h 46% 0.0 mm
21:24 25.6 °C 13.2 °C 1011.3 hPa SSO 10.3 km/h 19.3 km/h 46.1% 0.0 mm
21:29 25.6 °C 13.3 °C 1011.3 hPa SSE 10 km/h 16.1 km/h 46.5% 0.0 mm
21:34 25.6 °C 13 °C 1011.5 hPa SO 9.5 km/h 14.8 km/h 45.7% 0.0 mm
21:39 25.6 °C 12.8 °C 1011.5 hPa SSO 8 km/h 14.5 km/h 45.1% 0.0 mm
21:44 25.6 °C 12.5 °C 1011.5 hPa Sur 5.8 km/h 14.8 km/h 44.2% 0.0 mm
21:49 25.6 °C 12.3 °C 1011.5 hPa SSO 6.5 km/h 14.8 km/h 43.6% 0.0 mm
21:54 25.6 °C 12.1 °C 1011.5 hPa Sur 7.6 km/h 12.9 km/h 43% 0.0 mm
21:59 25.6 °C 12.2 °C 1011.5 hPa SSO 6.8 km/h 11.3 km/h 43.4% 0.0 mm
22:04 25.5 °C 11.9 °C 1011.6 hPa SSO 5.8 km/h 15.6 km/h 42.7% 0.0 mm
22:09 25.5 °C 11.7 °C 1011.6 hPa Sur 6.5 km/h 16.1 km/h 42.2% 0.0 mm
22:14 25.5 °C 12.7 °C 1011.6 hPa ESE 7.6 km/h 12.9 km/h 45.2% 0.0 mm
22:19 25.3 °C 13.4 °C 1011.7 hPa ESE 6.8 km/h 9.7 km/h 47.6% 0.0 mm
22:24 24.9 °C 13.3 °C 1011.7 hPa ESE 5.8 km/h 8 km/h 48.4% 0.0 mm
22:29 24.8 °C 13.3 °C 1011.7 hPa ESE 5.3 km/h 8 km/h 49% 0.0 mm
22:34 24.6 °C 13.4 °C 1011.9 hPa Este 4.7 km/h 9.5 km/h 49.8% 0.0 mm
22:39 24.4 °C 13.6 °C 1011.9 hPa ESE 4.7 km/h 9.7 km/h 51% 0.0 mm
22:44 24.2 °C 13.6 °C 1011.9 hPa ESE 4.7 km/h 9.3 km/h 51.7% 0.0 mm
22:49 24.1 °C 13.6 °C 1012.0 hPa SE 4.7 km/h 9.7 km/h 52% 0.0 mm
22:54 24 °C 13.5 °C 1012.0 hPa SSE 4.7 km/h 6.4 km/h 52% 0.0 mm
22:59 23.9 °C 13.5 °C 1012.0 hPa SSE 3.9 km/h 5.6 km/h 52% 0.0 mm
23:04 23.9 °C 13.2 °C 1012.1 hPa SSE 2.9 km/h 5.6 km/h 51.3% 0.0 mm
23:09 23.9 °C 13.4 °C 1012.1 hPa SSE 1.8 km/h 6.9 km/h 52% 0.0 mm
23:14 23.9 °C 13.4 °C 1012.1 hPa Calm   8 km/h 52% 0.0 mm
23:19 23.9 °C 13.4 °C 1012.1 hPa Oeste 1.2 km/h 9.5 km/h 52% 0.0 mm
23:24 23.9 °C 13.7 °C 1012.1 hPa Oeste 2.9 km/h 13 km/h 52.9% 0.0 mm
23:29 23.8 °C 13.9 °C 1012.1 hPa OSO 4.5 km/h 13.7 km/h 53.7% 0.0 mm
23:34 23.7 °C 14.2 °C 1012.1 hPa OSO 6.9 km/h 14.5 km/h 55.5% 0.0 mm
23:39 23.6 °C 14.8 °C 1012.1 hPa OSO 7.2 km/h 13 km/h 57.8% 0.0 mm
23:44 23.4 °C 15 °C 1012.1 hPa OSO 7.6 km/h 13 km/h 59.1% 0.0 mm
23:49 23.3 °C 15.1 °C 1012.2 hPa SO 7.6 km/h 17.2 km/h 60% 0.0 mm
23:54 23.1 °C 15.2 °C 1012.2 hPa SSO 7.6 km/h 22.2 km/h 61.2% 0.0 mm
23:59 22.8 °C 15.5 °C 1012.2 hPa SO 9.4 km/h 22.5 km/h 63.4% 0.0 mm
Murcia-Puente Tocinos, España
Compliments of Weather Underground - 3 mb

La estación de MeteoMurcia.com, publica sus datos en los siguientes proyectos:

Weather Underground PWS IMURCIAP2 Meteoclimatic www.awekas.at

W3Counter
Web Analytics